createdAt,value
2018-08-09T00:02:40.895Z,22.20
2018-08-09T00:05:44.223Z,22.20
2018-08-09T00:08:47.621Z,22.20
2018-08-09T00:11:50.940Z,22.10
2018-08-09T00:14:54.296Z,22.10
2018-08-09T00:17:57.629Z,22.10
2018-08-09T00:21:00.955Z,22.10
2018-08-09T00:24:04.797Z,22.00
2018-08-09T00:27:08.140Z,22.00
2018-08-09T00:30:11.504Z,22.10
2018-08-09T00:33:14.848Z,22.10
2018-08-09T00:36:18.168Z,22.10
2018-08-09T00:39:21.509Z,22.10
2018-08-09T00:42:24.857Z,22.10
2018-08-09T00:45:28.200Z,22.10
2018-08-09T00:48:31.561Z,22.00
2018-08-09T00:51:35.009Z,22.10
2018-08-09T00:54:38.362Z,22.20
2018-08-09T00:57:41.696Z,22.20
2018-08-09T01:00:45.029Z,22.10
2018-08-09T01:03:48.368Z,22.10
2018-08-09T01:06:51.703Z,22.20
2018-08-09T01:09:55.052Z,22.20
2018-08-09T01:12:58.368Z,22.10
2018-08-09T01:16:01.712Z,22.10
2018-08-09T01:19:05.104Z,22.00
2018-08-09T01:22:08.457Z,22.00
2018-08-09T01:25:11.910Z,22.00
2018-08-09T01:28:15.227Z,22.00
2018-08-09T01:31:28.391Z,22.00
2018-08-09T01:34:31.743Z,21.90
2018-08-09T01:37:35.068Z,21.90
2018-08-09T01:40:38.420Z,21.90
2018-08-09T01:43:56.925Z,21.90
2018-08-09T01:47:00.288Z,21.90
2018-08-09T01:50:03.732Z,21.90
2018-08-09T01:53:07.085Z,22.00
2018-08-09T01:56:10.455Z,22.00
2018-08-09T01:59:13.787Z,22.00
2018-08-09T02:02:17.141Z,22.00
2018-08-09T02:05:20.518Z,22.00
2018-08-09T02:08:23.975Z,22.00
2018-08-09T02:11:27.345Z,22.00
2018-08-09T02:14:30.679Z,22.00
2018-08-09T02:17:34.039Z,22.00
2018-08-09T02:20:37.403Z,22.00
2018-08-09T02:23:40.768Z,21.90
2018-08-09T02:26:44.128Z,22.00
2018-08-09T02:29:47.500Z,21.90
2018-08-09T02:32:50.966Z,21.90
2018-08-09T02:35:54.367Z,21.80
2018-08-09T02:38:57.748Z,21.80
2018-08-09T02:42:01.136Z,21.80
2018-08-09T02:45:04.588Z,21.70
2018-08-09T02:48:07.924Z,21.70
2018-08-09T02:51:11.287Z,21.60
2018-08-09T02:54:14.633Z,21.60
2018-08-09T02:57:17.996Z,21.40
2018-08-09T03:00:21.365Z,21.40
2018-08-09T03:03:24.808Z,21.30
2018-08-09T03:06:28.164Z,21.20
2018-08-09T03:09:31.524Z,21.20
2018-08-09T03:12:34.916Z,21.20
2018-08-09T03:15:38.327Z,21.00
2018-08-09T03:18:41.692Z,21.00
2018-08-09T03:21:45.113Z,21.00
2018-08-09T03:24:48.476Z,21.00
2018-08-09T03:27:51.844Z,20.90
2018-08-09T03:30:55.243Z,20.90
2018-08-09T03:33:58.589Z,20.80
2018-08-09T03:37:01.983Z,20.80
2018-08-09T03:40:05.491Z,20.80
2018-08-09T03:43:08.867Z,20.80
2018-08-09T03:46:12.244Z,20.80
2018-08-09T03:49:15.589Z,20.80
2018-08-09T03:52:18.956Z,20.80
2018-08-09T03:55:22.307Z,20.90
2018-08-09T03:58:25.683Z,20.80
2018-08-09T04:01:29.047Z,20.80
2018-08-09T04:04:32.399Z,20.80
2018-08-09T04:07:35.792Z,20.80
2018-08-09T04:10:39.140Z,20.70
2018-08-09T04:13:42.514Z,20.60
2018-08-09T04:16:45.866Z,20.60
2018-08-09T04:19:50.699Z,20.60
2018-08-09T04:22:54.077Z,20.60
2018-08-09T04:25:57.424Z,20.70
2018-08-09T04:29:00.779Z,20.60
2018-08-09T04:32:04.145Z,20.60
2018-08-09T04:35:07.476Z,20.60
2018-08-09T04:38:10.855Z,20.60
2018-08-09T04:41:14.198Z,20.60
2018-08-09T04:44:17.565Z,20.60
2018-08-09T04:47:21.024Z,20.60
2018-08-09T04:50:24.396Z,20.70
2018-08-09T04:53:27.715Z,20.80
2018-08-09T04:56:31.054Z,20.90
2018-08-09T04:59:34.406Z,20.90
2018-08-09T05:02:37.780Z,21.00
2018-08-09T05:05:41.113Z,21.10
2018-08-09T05:08:44.490Z,21.10
2018-08-09T05:11:47.828Z,21.20
2018-08-09T05:14:51.176Z,21.30
2018-08-09T05:17:54.532Z,21.30
2018-08-09T05:20:57.852Z,21.30
2018-08-09T05:24:01.204Z,21.40
2018-08-09T05:27:04.542Z,21.40
2018-08-09T05:30:07.955Z,21.40
2018-08-09T05:33:11.296Z,21.40
2018-08-09T05:36:14.657Z,21.50
2018-08-09T05:39:18.000Z,21.60
2018-08-09T05:42:21.404Z,21.70
2018-08-09T05:45:24.749Z,21.80
2018-08-09T05:48:28.097Z,21.80
2018-08-09T05:51:31.452Z,21.90
2018-08-09T05:54:34.809Z,21.90
2018-08-09T05:57:38.131Z,21.90
2018-08-09T06:00:41.485Z,21.90
2018-08-09T06:03:44.835Z,21.90
2018-08-09T06:06:48.185Z,21.80
2018-08-09T06:09:51.541Z,22.00
2018-08-09T06:12:54.916Z,22.10
2018-08-09T06:15:58.300Z,22.10
2018-08-09T06:19:01.653Z,22.20
2018-08-09T06:22:04.996Z,22.20
2018-08-09T06:25:08.361Z,22.30
2018-08-09T06:28:11.768Z,22.40
2018-08-09T06:31:15.164Z,22.60
2018-08-09T06:34:18.554Z,23.40
2018-08-09T06:37:21.943Z,24.30
2018-08-09T06:40:25.355Z,25.10
2018-08-09T06:43:28.758Z,25.40
2018-08-09T06:46:32.132Z,25.10
2018-08-09T06:49:35.472Z,24.70
2018-08-09T06:52:38.831Z,24.60
2018-08-09T06:55:42.215Z,24.40
2018-08-09T06:58:45.548Z,24.40
2018-08-09T07:01:48.923Z,24.60
2018-08-09T07:04:52.290Z,24.80
2018-08-09T07:07:55.634Z,25.10
2018-08-09T07:10:59.000Z,25.40
2018-08-09T07:14:02.332Z,25.60
2018-08-09T07:17:05.688Z,25.70
2018-08-09T07:20:09.880Z,25.90
2018-08-09T07:23:13.228Z,25.90
2018-08-09T07:26:16.614Z,26.20
2018-08-09T07:29:19.974Z,26.30
2018-08-09T07:32:23.335Z,26.40
2018-08-09T07:35:26.692Z,26.40
2018-08-09T07:38:30.063Z,26.50
2018-08-09T07:41:33.428Z,26.80
2018-08-09T07:44:36.796Z,26.90
2018-08-09T07:47:40.269Z,27.00
2018-08-09T07:50:43.624Z,27.20
2018-08-09T07:53:46.959Z,27.00
2018-08-09T07:56:50.353Z,27.00
2018-08-09T07:59:53.781Z,27.00
2018-08-09T08:02:57.161Z,27.10
2018-08-09T08:06:00.555Z,27.40
2018-08-09T08:09:06.034Z,27.50
2018-08-09T08:12:09.400Z,27.60
2018-08-09T08:15:12.748Z,27.70
2018-08-09T08:18:16.158Z,27.80
2018-08-09T08:21:19.552Z,28.00
2018-08-09T08:24:22.889Z,28.30
2018-08-09T08:27:26.283Z,28.50
2018-08-09T08:30:29.627Z,28.60
2018-08-09T08:33:32.979Z,28.80
2018-08-09T08:36:36.343Z,28.90
2018-08-09T08:39:39.677Z,29.00
2018-08-09T08:42:43.116Z,29.20
2018-08-09T08:45:46.549Z,29.40
2018-08-09T08:48:49.915Z,29.50
2018-08-09T08:51:53.346Z,29.60
2018-08-09T08:54:56.677Z,29.50
2018-08-09T08:58:00.071Z,29.60
2018-08-09T09:01:03.528Z,29.70
2018-08-09T09:04:06.820Z,29.70
2018-08-09T09:07:10.310Z,29.80
2018-08-09T09:10:14.056Z,29.80
2018-08-09T09:13:17.404Z,30.00
2018-08-09T09:16:21.006Z,30.10
2018-08-09T09:19:24.356Z,30.30
2018-08-09T09:22:27.712Z,30.30
2018-08-09T09:25:31.220Z,30.40
2018-08-09T09:28:34.609Z,30.50
2018-08-09T09:31:37.968Z,30.40
2018-08-09T09:34:41.332Z,30.50
2018-08-09T09:37:45.173Z,30.60
2018-08-09T09:40:48.628Z,30.70
2018-08-09T09:43:52.028Z,30.80
2018-08-09T09:46:55.448Z,30.80
2018-08-09T09:49:58.797Z,30.90
2018-08-09T09:53:02.132Z,30.90
2018-08-09T09:56:05.526Z,31.00
2018-08-09T09:59:08.848Z,31.10
2018-08-09T10:02:12.287Z,31.10
2018-08-09T10:05:16.080Z,31.20
2018-08-09T10:08:19.451Z,31.40
2018-08-09T10:11:22.787Z,31.40
2018-08-09T10:14:26.132Z,31.60
2018-08-09T10:17:29.467Z,31.50
2018-08-09T10:20:32.809Z,31.50
2018-08-09T10:23:36.160Z,31.60
2018-08-09T10:26:39.495Z,31.60
2018-08-09T10:29:42.848Z,31.80
2018-08-09T10:32:46.194Z,32.00
2018-08-09T10:35:49.558Z,32.20
2018-08-09T10:38:52.925Z,32.30
2018-08-09T10:41:56.245Z,32.30
2018-08-09T10:44:59.588Z,32.30
2018-08-09T10:48:02.931Z,32.40
2018-08-09T10:51:06.288Z,32.50
2018-08-09T10:54:09.652Z,32.70
2018-08-09T10:57:13.010Z,32.60
2018-08-09T11:00:16.348Z,32.70
2018-08-09T11:03:19.697Z,32.70
2018-08-09T11:06:23.048Z,32.70
2018-08-09T11:09:26.380Z,32.70
2018-08-09T11:12:29.741Z,32.80
2018-08-09T11:15:33.189Z,32.90
2018-08-09T11:18:36.536Z,33.10
2018-08-09T11:21:39.905Z,33.20
2018-08-09T11:24:43.233Z,33.30
2018-08-09T11:27:46.685Z,33.40
2018-08-09T11:30:50.109Z,33.20
2018-08-09T11:33:53.450Z,33.20
2018-08-09T11:36:56.829Z,33.30
2018-08-09T11:40:00.181Z,33.40
2018-08-09T11:43:03.710Z,33.40
2018-08-09T11:46:07.124Z,33.30
2018-08-09T11:49:10.480Z,33.30
2018-08-09T11:52:13.835Z,33.30
2018-08-09T11:55:17.216Z,33.40
2018-08-09T11:58:20.552Z,33.50
2018-08-09T12:01:23.937Z,33.40
2018-08-09T12:04:27.291Z,33.50
2018-08-09T12:07:30.640Z,33.50
2018-08-09T12:10:34.075Z,33.40
2018-08-09T12:13:37.500Z,33.30
2018-08-09T12:16:40.896Z,33.30
2018-08-09T12:19:44.255Z,33.40
2018-08-09T12:22:47.636Z,33.30
2018-08-09T12:25:51.045Z,33.50
2018-08-09T12:28:54.473Z,33.60
2018-08-09T12:31:57.872Z,33.70
2018-08-09T12:35:01.267Z,33.80
2018-08-09T12:38:04.697Z,33.80
2018-08-09T12:41:08.117Z,33.60
2018-08-09T12:44:11.713Z,33.50
2018-08-09T12:47:15.116Z,33.60
2018-08-09T12:50:18.451Z,33.70
2018-08-09T12:53:21.857Z,33.50
2018-08-09T12:56:25.216Z,33.20
2018-08-09T12:59:28.559Z,33.30
2018-08-09T13:02:31.965Z,33.60
2018-08-09T13:05:35.319Z,33.70
2018-08-09T13:08:38.727Z,33.80
2018-08-09T13:11:42.116Z,34.00
2018-08-09T13:14:45.488Z,33.90
2018-08-09T13:17:48.921Z,33.70
2018-08-09T13:20:52.314Z,33.50
2018-08-09T13:23:55.760Z,33.30
2018-08-09T13:26:59.136Z,32.60
2018-08-09T13:30:02.677Z,31.30
2018-08-09T13:33:06.127Z,30.00
2018-08-09T13:36:09.520Z,28.90
2018-08-09T13:39:13.838Z,27.90
2018-08-09T13:42:17.204Z,27.40
2018-08-09T13:45:20.599Z,27.10
2018-08-09T13:48:24.004Z,26.80
2018-08-09T13:51:27.397Z,26.60
2018-08-09T13:54:30.883Z,26.30
2018-08-09T13:57:34.335Z,26.00
2018-08-09T14:00:37.717Z,25.40
2018-08-09T14:03:41.093Z,24.80
2018-08-09T14:06:44.496Z,24.30
2018-08-09T14:09:47.904Z,23.80
2018-08-09T14:12:51.380Z,23.50
2018-08-09T14:15:54.892Z,23.40
2018-08-09T14:18:58.385Z,23.20
2018-08-09T14:22:01.784Z,23.10
2018-08-09T14:25:05.970Z,23.10
2018-08-09T14:28:09.363Z,23.30
2018-08-09T14:31:12.744Z,23.30
2018-08-09T14:34:16.089Z,23.40
2018-08-09T14:37:19.427Z,23.50
2018-08-09T14:40:22.771Z,23.70
2018-08-09T14:43:26.183Z,23.90
2018-08-09T14:46:29.537Z,24.00
2018-08-09T14:49:32.903Z,24.10
2018-08-09T14:52:36.541Z,24.20
2018-08-09T14:55:39.935Z,24.30
2018-08-09T14:58:43.321Z,24.30
2018-08-09T15:01:46.664Z,24.30
2018-08-09T15:04:50.041Z,24.40
2018-08-09T15:07:53.375Z,24.30
2018-08-09T15:10:56.789Z,24.30
2018-08-09T15:14:00.196Z,24.30
2018-08-09T15:17:03.597Z,24.20
2018-08-09T15:20:09.084Z,24.20
2018-08-09T15:23:12.484Z,24.30
2018-08-09T15:26:15.937Z,24.20
2018-08-09T15:29:19.409Z,24.30
2018-08-09T15:32:22.778Z,24.20
2018-08-09T15:35:26.164Z,24.30
2018-08-09T15:38:29.535Z,24.30
2018-08-09T15:41:32.934Z,24.30
2018-08-09T15:44:36.438Z,24.30
2018-08-09T15:47:40.513Z,24.30
2018-08-09T15:50:43.851Z,24.40
2018-08-09T15:53:47.241Z,24.40
2018-08-09T16:17:55.112Z,25.50
2018-08-09T16:45:25.377Z,27.60
2018-08-09T16:52:09.541Z,26.50
2018-08-09T16:55:15.892Z,26.10
2018-08-09T16:58:20.428Z,25.70
2018-08-09T17:01:24.978Z,25.30
2018-08-09T17:04:29.495Z,25.10
2018-08-09T17:07:34.031Z,25.00
2018-08-09T17:10:38.564Z,24.90
2018-08-09T17:13:43.078Z,24.90
2018-08-09T17:16:47.605Z,24.90
2018-08-09T17:19:52.139Z,24.80
2018-08-09T17:22:57.065Z,24.80
2018-08-09T17:26:01.595Z,24.80
2018-08-09T17:29:07.558Z,24.80
2018-08-09T17:32:12.077Z,24.70
2018-08-09T17:35:17.619Z,24.60
2018-08-09T17:38:22.156Z,24.40
2018-08-09T17:41:26.683Z,24.30
2018-08-09T17:44:31.207Z,24.10
2018-08-09T17:47:35.650Z,24.10
2018-08-09T17:50:40.173Z,24.10
2018-08-09T17:53:44.663Z,24.10
2018-08-09T17:56:49.581Z,24.00
2018-08-09T17:59:54.022Z,23.90
2018-08-09T18:02:58.541Z,23.70
2018-08-09T18:06:03.027Z,23.70
2018-08-09T18:09:10.757Z,23.60
2018-08-09T18:12:15.815Z,23.60
2018-08-09T18:15:20.833Z,23.50
2018-08-09T18:18:25.298Z,23.50
2018-08-09T18:21:29.746Z,23.40
2018-08-09T18:24:34.264Z,23.30
2018-08-09T18:27:38.849Z,23.20
2018-08-09T18:30:43.346Z,23.20
2018-08-09T18:33:47.842Z,23.30
2018-08-09T18:36:52.320Z,23.30
2018-08-09T18:39:56.842Z,23.30
2018-08-09T18:43:01.357Z,23.30
2018-08-09T18:46:05.962Z,23.30
2018-08-09T18:49:10.453Z,23.30
2018-08-09T18:52:15.046Z,23.30
2018-08-09T18:55:20.181Z,23.30
2018-08-09T18:58:24.679Z,23.20
2018-08-09T19:01:29.141Z,23.00
2018-08-09T19:04:34.307Z,22.90
2018-08-09T19:07:38.998Z,22.80
2018-08-09T19:10:43.438Z,22.80
2018-08-09T19:13:47.987Z,22.70
2018-08-09T19:16:52.446Z,22.70
2018-08-09T19:19:57.008Z,22.60
2018-08-09T19:23:01.873Z,22.60
2018-08-09T19:26:06.397Z,22.60
2018-08-09T19:29:10.899Z,22.50
2018-08-09T19:32:15.448Z,22.40
2018-08-09T19:35:21.036Z,22.40
2018-08-09T19:38:25.526Z,22.40
2018-08-09T19:41:29.967Z,22.40
2018-08-09T19:44:34.479Z,22.30
2018-08-09T19:47:39.170Z,22.20
2018-08-09T19:50:43.644Z,22.20
2018-08-09T19:53:48.117Z,22.10
2018-08-09T19:56:52.544Z,22.10
2018-08-09T19:59:57.091Z,22.20
2018-08-09T20:03:01.492Z,22.20
2018-08-09T20:06:06.009Z,22.10
2018-08-09T20:09:11.160Z,22.10
2018-08-09T20:12:15.573Z,22.10
2018-08-09T20:15:22.523Z,22.10
2018-08-09T20:18:27.021Z,22.10
2018-08-09T20:21:31.531Z,22.10
2018-08-09T20:24:36.074Z,22.00
2018-08-09T20:27:40.910Z,22.00
2018-08-09T20:30:45.537Z,22.00
2018-08-09T20:33:50.064Z,21.90
2018-08-09T20:36:54.482Z,21.90
2018-08-09T20:39:58.942Z,21.80
2018-08-09T20:43:03.434Z,21.80
2018-08-09T20:46:07.960Z,21.80
2018-08-09T20:49:12.557Z,21.80
2018-08-09T20:52:16.969Z,21.80
2018-08-09T20:55:21.436Z,21.80
2018-08-09T20:58:25.961Z,21.70
2018-08-09T21:01:30.460Z,21.60
2018-08-09T21:04:35.019Z,21.60
2018-08-09T21:07:39.539Z,21.60
2018-08-09T21:10:44.070Z,21.50
2018-08-09T21:13:48.553Z,21.50
2018-08-09T21:16:53.014Z,21.50
2018-08-09T21:19:57.503Z,21.50
2018-08-09T21:23:01.965Z,21.50
2018-08-09T21:26:06.491Z,21.50
2018-08-09T21:29:11.021Z,21.60
2018-08-09T21:32:15.553Z,21.50
2018-08-09T21:35:20.067Z,21.50
2018-08-09T21:38:24.562Z,21.50
2018-08-09T21:41:29.045Z,21.40
2018-08-09T21:44:33.542Z,21.40
2018-08-09T21:47:38.092Z,21.40
2018-08-09T21:50:42.594Z,21.30
2018-08-09T21:53:47.136Z,21.30
2018-08-09T21:56:51.645Z,21.30
2018-08-09T21:59:56.091Z,21.30
2018-08-09T22:03:00.595Z,21.20
2018-08-09T22:06:10.266Z,21.30
2018-08-09T22:09:19.994Z,21.30
2018-08-09T22:12:29.749Z,21.10
2018-08-09T22:15:39.487Z,20.90
2018-08-09T22:18:49.135Z,20.90
2018-08-09T22:21:58.984Z,20.90
2018-08-09T22:25:03.508Z,20.90
2018-08-09T22:28:08.135Z,20.90
2018-08-09T22:31:13.070Z,20.90
2018-08-09T22:34:17.494Z,21.00
2018-08-09T22:37:21.940Z,21.00
2018-08-09T22:40:26.326Z,21.10
2018-08-09T22:43:30.765Z,21.10
2018-08-09T22:46:35.227Z,21.10
2018-08-09T22:49:39.666Z,21.10
2018-08-09T22:52:44.140Z,21.10
2018-08-09T22:55:48.664Z,21.10
2018-08-09T22:58:53.189Z,21.10
2018-08-09T23:01:57.645Z,21.10
2018-08-09T23:05:02.144Z,21.10
2018-08-09T23:08:08.217Z,21.20
2018-08-09T23:11:12.670Z,21.30
2018-08-09T23:14:17.149Z,21.30
2018-08-09T23:17:21.657Z,21.30
2018-08-09T23:20:26.100Z,21.40
2018-08-09T23:23:30.551Z,21.30
2018-08-09T23:26:35.049Z,21.40
2018-08-09T23:29:39.505Z,21.40
2018-08-09T23:32:43.999Z,21.30
2018-08-09T23:35:48.430Z,21.20
2018-08-09T23:38:52.841Z,21.10
2018-08-09T23:41:57.265Z,21.00
2018-08-09T23:45:01.742Z,20.80
2018-08-09T23:48:06.576Z,20.70
2018-08-09T23:51:11.050Z,20.60
2018-08-09T23:54:15.575Z,20.50
2018-08-09T23:57:20.000Z,20.40
